sensor_id;sensor_type;location;lat;lon;timestamp;P1;durP1;ratioP1;P2;durP2;ratioP2
37349;SDS011;23231;52.358;4.926;2022-10-17T00:02:49;19.50;;;8.50;;
37349;SDS011;23231;52.358;4.926;2022-10-17T00:07:50;11.43;;;8.57;;
37349;SDS011;23231;52.358;4.926;2022-10-17T00:12:51;13.45;;;7.82;;
37349;SDS011;23231;52.358;4.926;2022-10-17T00:17:52;13.55;;;7.28;;
37349;SDS011;23231;52.358;4.926;2022-10-17T00:22:52;12.82;;;7.10;;
37349;SDS011;23231;52.358;4.926;2022-10-17T00:27:52;10.73;;;6.97;;
37349;SDS011;23231;52.358;4.926;2022-10-17T00:32:53;10.68;;;7.28;;
37349;SDS011;23231;52.358;4.926;2022-10-17T00:37:53;12.82;;;6.93;;
37349;SDS011;23231;52.358;4.926;2022-10-17T00:42:54;11.88;;;7.00;;
37349;SDS011;23231;52.358;4.926;2022-10-17T00:47:58;10.20;;;6.70;;
37349;SDS011;23231;52.358;4.926;2022-10-17T00:58:01;14.10;;;7.35;;
37349;SDS011;23231;52.358;4.926;2022-10-17T01:03:03;11.63;;;6.90;;
37349;SDS011;23231;52.358;4.926;2022-10-17T01:08:03;10.63;;;6.25;;
37349;SDS011;23231;52.358;4.926;2022-10-17T01:13:10;11.07;;;6.72;;
37349;SDS011;23231;52.358;4.926;2022-10-17T01:18:37;13.80;;;7.68;;
37349;SDS011;23231;52.358;4.926;2022-10-17T01:29:22;11.27;;;6.45;;
37349;SDS011;23231;52.358;4.926;2022-10-17T01:34:43;9.50;;;6.80;;
37349;SDS011;23231;52.358;4.926;2022-10-17T01:39:51;11.50;;;6.60;;
37349;SDS011;23231;52.358;4.926;2022-10-17T01:44:58;11.88;;;7.30;;
37349;SDS011;23231;52.358;4.926;2022-10-17T01:50:03;11.45;;;6.95;;
37349;SDS011;23231;52.358;4.926;2022-10-17T01:55:07;12.60;;;7.40;;
37349;SDS011;23231;52.358;4.926;2022-10-17T02:00:12;11.63;;;7.50;;
37349;SDS011;23231;52.358;4.926;2022-10-17T02:05:15;10.13;;;7.18;;
37349;SDS011;23231;52.358;4.926;2022-10-17T02:10:40;10.38;;;6.95;;
37349;SDS011;23231;52.358;4.926;2022-10-17T02:26:09;13.40;;;8.05;;
37349;SDS011;23231;52.358;4.926;2022-10-17T02:36:18;16.10;;;8.55;;
37349;SDS011;23231;52.358;4.926;2022-10-17T02:41:21;16.30;;;9.83;;
37349;SDS011;23231;52.358;4.926;2022-10-17T02:46:22;15.32;;;9.73;;
37349;SDS011;23231;52.358;4.926;2022-10-17T02:51:40;14.77;;;9.70;;
37349;SDS011;23231;52.358;4.926;2022-10-17T02:56:52;21.08;;;11.50;;
37349;SDS011;23231;52.358;4.926;2022-10-17T03:01:54;17.70;;;11.75;;
37349;SDS011;23231;52.358;4.926;2022-10-17T03:06:54;18.77;;;11.93;;
37349;SDS011;23231;52.358;4.926;2022-10-17T03:11:55;18.52;;;11.18;;
37349;SDS011;23231;52.358;4.926;2022-10-17T03:16:55;14.82;;;10.25;;
37349;SDS011;23231;52.358;4.926;2022-10-17T03:21:56;20.00;;;10.80;;
37349;SDS011;23231;52.358;4.926;2022-10-17T03:26:56;17.45;;;11.15;;
37349;SDS011;23231;52.358;4.926;2022-10-17T03:31:56;16.33;;;10.88;;
37349;SDS011;23231;52.358;4.926;2022-10-17T03:36:57;16.20;;;10.82;;
37349;SDS011;23231;52.358;4.926;2022-10-17T03:41:57;19.20;;;10.82;;
37349;SDS011;23231;52.358;4.926;2022-10-17T03:46:58;17.17;;;10.88;;
37349;SDS011;23231;52.358;4.926;2022-10-17T03:51:58;17.27;;;11.10;;
37349;SDS011;23231;52.358;4.926;2022-10-17T03:56:58;15.13;;;10.40;;
37349;SDS011;23231;52.358;4.926;2022-10-17T04:01:59;16.15;;;11.10;;
37349;SDS011;23231;52.358;4.926;2022-10-17T04:06:59;15.38;;;10.82;;
37349;SDS011;23231;52.358;4.926;2022-10-17T04:11:59;18.52;;;10.88;;
37349;SDS011;23231;52.358;4.926;2022-10-17T04:17:00;17.38;;;10.55;;
37349;SDS011;23231;52.358;4.926;2022-10-17T04:22:00;16.73;;;10.43;;
37349;SDS011;23231;52.358;4.926;2022-10-17T04:27:02;16.02;;;10.60;;
37349;SDS011;23231;52.358;4.926;2022-10-17T04:32:02;18.27;;;11.20;;
37349;SDS011;23231;52.358;4.926;2022-10-17T04:37:03;17.52;;;10.90;;
37349;SDS011;23231;52.358;4.926;2022-10-17T04:42:03;15.68;;;10.43;;
37349;SDS011;23231;52.358;4.926;2022-10-17T04:47:04;16.02;;;10.65;;
37349;SDS011;23231;52.358;4.926;2022-10-17T04:52:04;18.55;;;11.32;;
37349;SDS011;23231;52.358;4.926;2022-10-17T04:57:04;16.38;;;10.82;;
37349;SDS011;23231;52.358;4.926;2022-10-17T05:02:05;14.68;;;9.90;;
37349;SDS011;23231;52.358;4.926;2022-10-17T05:07:06;15.93;;;10.68;;
37349;SDS011;23231;52.358;4.926;2022-10-17T05:12:06;14.05;;;9.55;;
37349;SDS011;23231;52.358;4.926;2022-10-17T05:17:07;16.55;;;10.15;;
37349;SDS011;23231;52.358;4.926;2022-10-17T05:22:07;14.77;;;10.57;;
37349;SDS011;23231;52.358;4.926;2022-10-17T05:27:08;15.88;;;10.18;;
37349;SDS011;23231;52.358;4.926;2022-10-17T05:32:08;16.33;;;10.57;;
37349;SDS011;23231;52.358;4.926;2022-10-17T05:37:09;13.18;;;9.85;;
37349;SDS011;23231;52.358;4.926;2022-10-17T05:42:09;16.33;;;10.50;;
37349;SDS011;23231;52.358;4.926;2022-10-17T05:47:09;17.63;;;10.63;;
37349;SDS011;23231;52.358;4.926;2022-10-17T05:52:10;15.35;;;10.90;;
37349;SDS011;23231;52.358;4.926;2022-10-17T05:57:10;17.73;;;11.40;;
37349;SDS011;23231;52.358;4.926;2022-10-17T06:02:11;16.63;;;10.50;;
37349;SDS011;23231;52.358;4.926;2022-10-17T06:07:11;22.08;;;11.75;;
37349;SDS011;23231;52.358;4.926;2022-10-17T06:12:12;15.70;;;10.55;;
37349;SDS011;23231;52.358;4.926;2022-10-17T06:17:12;16.35;;;10.70;;
37349;SDS011;23231;52.358;4.926;2022-10-17T06:22:13;20.35;;;11.27;;
37349;SDS011;23231;52.358;4.926;2022-10-17T06:27:13;16.33;;;10.98;;
37349;SDS011;23231;52.358;4.926;2022-10-17T06:32:14;15.73;;;10.70;;
37349;SDS011;23231;52.358;4.926;2022-10-17T06:37:14;21.33;;;11.90;;
37349;SDS011;23231;52.358;4.926;2022-10-17T06:42:14;18.38;;;11.68;;
37349;SDS011;23231;52.358;4.926;2022-10-17T06:47:15;21.42;;;10.90;;
37349;SDS011;23231;52.358;4.926;2022-10-17T06:52:15;14.63;;;11.07;;
37349;SDS011;23231;52.358;4.926;2022-10-17T06:57:17;16.17;;;10.77;;
37349;SDS011;23231;52.358;4.926;2022-10-17T07:02:17;20.30;;;10.18;;
37349;SDS011;23231;52.358;4.926;2022-10-17T07:07:20;18.10;;;10.90;;
37349;SDS011;23231;52.358;4.926;2022-10-17T07:12:20;18.33;;;11.63;;
37349;SDS011;23231;52.358;4.926;2022-10-17T07:17:22;16.48;;;10.88;;
37349;SDS011;23231;52.358;4.926;2022-10-17T07:22:22;16.45;;;10.70;;
37349;SDS011;23231;52.358;4.926;2022-10-17T07:27:23;18.00;;;11.38;;
37349;SDS011;23231;52.358;4.926;2022-10-17T07:32:23;19.35;;;11.25;;
37349;SDS011;23231;52.358;4.926;2022-10-17T07:37:24;17.60;;;10.52;;
37349;SDS011;23231;52.358;4.926;2022-10-17T07:42:24;17.70;;;10.38;;
37349;SDS011;23231;52.358;4.926;2022-10-17T07:47:25;14.13;;;10.13;;
37349;SDS011;23231;52.358;4.926;2022-10-17T07:52:25;19.98;;;11.27;;
37349;SDS011;23231;52.358;4.926;2022-10-17T07:57:25;17.67;;;11.00;;
37349;SDS011;23231;52.358;4.926;2022-10-17T08:02:26;20.35;;;11.25;;
37349;SDS011;23231;52.358;4.926;2022-10-17T08:07:27;18.23;;;10.85;;
37349;SDS011;23231;52.358;4.926;2022-10-17T08:12:28;16.95;;;11.57;;
37349;SDS011;23231;52.358;4.926;2022-10-17T08:17:32;24.83;;;12.13;;
37349;SDS011;23231;52.358;4.926;2022-10-17T08:22:36;19.30;;;12.30;;
37349;SDS011;23231;52.358;4.926;2022-10-17T08:27:36;19.40;;;11.50;;
37349;SDS011;23231;52.358;4.926;2022-10-17T08:32:37;19.30;;;12.55;;
37349;SDS011;23231;52.358;4.926;2022-10-17T08:37:37;23.65;;;14.35;;
37349;SDS011;23231;52.358;4.926;2022-10-17T08:48:04;19.27;;;13.02;;
37349;SDS011;23231;52.358;4.926;2022-10-17T09:03:37;24.88;;;14.00;;
37349;SDS011;23231;52.358;4.926;2022-10-17T09:09:57;27.45;;;14.93;;
37349;SDS011;23231;52.358;4.926;2022-10-17T09:14:36;24.85;;;14.77;;
37349;SDS011;23231;52.358;4.926;2022-10-17T09:20:03;21.23;;;13.73;;
37349;SDS011;23231;52.358;4.926;2022-10-17T09:25:10;26.58;;;15.82;;
37349;SDS011;23231;52.358;4.926;2022-10-17T09:30:16;23.30;;;14.73;;
37349;SDS011;23231;52.358;4.926;2022-10-17T09:35:32;29.40;;;16.23;;
37349;SDS011;23231;52.358;4.926;2022-10-17T09:40:33;24.17;;;13.38;;
37349;SDS011;23231;52.358;4.926;2022-10-17T09:45:36;31.85;;;17.38;;
37349;SDS011;23231;52.358;4.926;2022-10-17T09:50:42;22.60;;;13.98;;
37349;SDS011;23231;52.358;4.926;2022-10-17T09:55:45;24.23;;;15.93;;
37349;SDS011;23231;52.358;4.926;2022-10-17T10:00:47;34.10;;;17.50;;
37349;SDS011;23231;52.358;4.926;2022-10-17T10:06:02;25.38;;;15.27;;
37349;SDS011;23231;52.358;4.926;2022-10-17T10:11:05;27.65;;;14.77;;
37349;SDS011;23231;52.358;4.926;2022-10-17T10:16:29;22.20;;;14.57;;
37349;SDS011;23231;52.358;4.926;2022-10-17T10:21:31;23.48;;;13.95;;
37349;SDS011;23231;52.358;4.926;2022-10-17T10:31:36;15.95;;;10.98;;
37349;SDS011;23231;52.358;4.926;2022-10-17T10:36:45;19.15;;;11.68;;
37349;SDS011;23231;52.358;4.926;2022-10-17T10:41:47;7.72;;;4.00;;
37349;SDS011;23231;52.358;4.926;2022-10-17T10:46:47;7.57;;;3.75;;
37349;SDS011;23231;52.358;4.926;2022-10-17T10:52:05;6.78;;;4.15;;
37349;SDS011;23231;52.358;4.926;2022-10-17T10:57:07;5.60;;;3.60;;
37349;SDS011;23231;52.358;4.926;2022-10-17T11:02:11;6.53;;;3.00;;
37349;SDS011;23231;52.358;4.926;2022-10-17T11:07:34;5.05;;;2.42;;
37349;SDS011;23231;52.358;4.926;2022-10-17T11:17:56;5.90;;;2.35;;
37349;SDS011;23231;52.358;4.926;2022-10-17T11:28:22;5.50;;;2.05;;
37349;SDS011;23231;52.358;4.926;2022-10-17T11:33:24;5.07;;;2.38;;
37349;SDS011;23231;52.358;4.926;2022-10-17T11:38:48;5.07;;;2.10;;
37349;SDS011;23231;52.358;4.926;2022-10-17T11:43:52;6.50;;;1.80;;
37349;SDS011;23231;52.358;4.926;2022-10-17T11:49:15;5.10;;;2.10;;
37349;SDS011;23231;52.358;4.926;2022-10-17T11:54:27;3.63;;;1.70;;
37349;SDS011;23231;52.358;4.926;2022-10-17T11:59:52;5.03;;;2.10;;
37349;SDS011;23231;52.358;4.926;2022-10-17T12:04:58;5.53;;;2.55;;
37349;SDS011;23231;52.358;4.926;2022-10-17T12:10:50;4.13;;;2.50;;
37349;SDS011;23231;52.358;4.926;2022-10-17T12:15:44;5.20;;;3.10;;
37349;SDS011;23231;52.358;4.926;2022-10-17T12:21:05;6.85;;;3.03;;
37349;SDS011;23231;52.358;4.926;2022-10-17T12:26:06;6.32;;;4.28;;
37349;SDS011;23231;52.358;4.926;2022-10-17T12:57:20;7.20;;;4.05;;
37349;SDS011;23231;52.358;4.926;2022-10-17T13:02:31;7.70;;;4.30;;
37349;SDS011;23231;52.358;4.926;2022-10-17T13:07:32;8.68;;;4.38;;
37349;SDS011;23231;52.358;4.926;2022-10-17T13:12:35;7.35;;;3.65;;
37349;SDS011;23231;52.358;4.926;2022-10-17T13:17:36;5.60;;;3.42;;
37349;SDS011;23231;52.358;4.926;2022-10-17T13:22:37;5.85;;;3.05;;
37349;SDS011;23231;52.358;4.926;2022-10-17T13:27:43;7.47;;;3.05;;
37349;SDS011;23231;52.358;4.926;2022-10-17T13:32:44;5.72;;;2.90;;
37349;SDS011;23231;52.358;4.926;2022-10-17T13:37:45;5.78;;;3.30;;
37349;SDS011;23231;52.358;4.926;2022-10-17T13:42:46;8.35;;;3.60;;
37349;SDS011;23231;52.358;4.926;2022-10-17T13:47:47;9.45;;;4.00;;
37349;SDS011;23231;52.358;4.926;2022-10-17T13:52:47;7.53;;;3.60;;
37349;SDS011;23231;52.358;4.926;2022-10-17T13:57:48;7.00;;;3.60;;
37349;SDS011;23231;52.358;4.926;2022-10-17T14:02:48;5.95;;;3.60;;
37349;SDS011;23231;52.358;4.926;2022-10-17T14:07:55;5.82;;;3.35;;
37349;SDS011;23231;52.358;4.926;2022-10-17T14:12:57;7.18;;;3.75;;
37349;SDS011;23231;52.358;4.926;2022-10-17T14:18:06;9.50;;;3.28;;
37349;SDS011;23231;52.358;4.926;2022-10-17T14:23:25;9.23;;;3.50;;
37349;SDS011;23231;52.358;4.926;2022-10-17T14:28:30;6.65;;;3.05;;
37349;SDS011;23231;52.358;4.926;2022-10-17T14:33:30;8.48;;;3.35;;
37349;SDS011;23231;52.358;4.926;2022-10-17T14:38:31;7.55;;;3.30;;
37349;SDS011;23231;52.358;4.926;2022-10-17T14:43:31;8.75;;;3.40;;
37349;SDS011;23231;52.358;4.926;2022-10-17T14:48:32;4.80;;;3.10;;
37349;SDS011;23231;52.358;4.926;2022-10-17T14:53:32;8.57;;;3.38;;
37349;SDS011;23231;52.358;4.926;2022-10-17T14:58:33;7.88;;;3.08;;
37349;SDS011;23231;52.358;4.926;2022-10-17T15:03:34;7.80;;;3.03;;
37349;SDS011;23231;52.358;4.926;2022-10-17T15:08:34;7.50;;;3.25;;
37349;SDS011;23231;52.358;4.926;2022-10-17T15:13:34;6.80;;;2.95;;
37349;SDS011;23231;52.358;4.926;2022-10-17T15:18:36;7.85;;;3.25;;
37349;SDS011;23231;52.358;4.926;2022-10-17T15:23:36;11.43;;;3.00;;
37349;SDS011;23231;52.358;4.926;2022-10-17T15:28:37;8.88;;;2.90;;
37349;SDS011;23231;52.358;4.926;2022-10-17T15:33:37;7.20;;;3.00;;
37349;SDS011;23231;52.358;4.926;2022-10-17T15:38:37;6.00;;;3.15;;
37349;SDS011;23231;52.358;4.926;2022-10-17T15:43:38;9.82;;;3.88;;
37349;SDS011;23231;52.358;4.926;2022-10-17T15:48:38;8.63;;;3.20;;
37349;SDS011;23231;52.358;4.926;2022-10-17T15:53:39;10.13;;;3.25;;
37349;SDS011;23231;52.358;4.926;2022-10-17T15:58:40;7.18;;;3.72;;
37349;SDS011;23231;52.358;4.926;2022-10-17T16:03:40;7.68;;;3.50;;
37349;SDS011;23231;52.358;4.926;2022-10-17T16:08:41;10.25;;;3.90;;
37349;SDS011;23231;52.358;4.926;2022-10-17T16:13:48;9.45;;;3.85;;
37349;SDS011;23231;52.358;4.926;2022-10-17T16:18:50;8.18;;;3.50;;
37349;SDS011;23231;52.358;4.926;2022-10-17T16:23:50;9.07;;;3.85;;
37349;SDS011;23231;52.358;4.926;2022-10-17T16:28:51;9.98;;;3.90;;
37349;SDS011;23231;52.358;4.926;2022-10-17T16:33:52;9.55;;;3.85;;
37349;SDS011;23231;52.358;4.926;2022-10-17T16:38:53;9.55;;;4.70;;
37349;SDS011;23231;52.358;4.926;2022-10-17T16:43:54;8.48;;;4.28;;
37349;SDS011;23231;52.358;4.926;2022-10-17T16:48:56;9.90;;;4.45;;
37349;SDS011;23231;52.358;4.926;2022-10-17T16:53:57;8.82;;;4.13;;
37349;SDS011;23231;52.358;4.926;2022-10-17T16:58:59;7.43;;;3.50;;
37349;SDS011;23231;52.358;4.926;2022-10-17T17:04:00;8.27;;;4.18;;
37349;SDS011;23231;52.358;4.926;2022-10-17T17:09:03;8.70;;;4.63;;
37349;SDS011;23231;52.358;4.926;2022-10-17T17:14:04;12.45;;;4.38;;
37349;SDS011;23231;52.358;4.926;2022-10-17T17:19:05;11.35;;;4.85;;
37349;SDS011;23231;52.358;4.926;2022-10-17T17:24:07;12.38;;;5.47;;
37349;SDS011;23231;52.358;4.926;2022-10-17T17:29:07;14.02;;;5.00;;
37349;SDS011;23231;52.358;4.926;2022-10-17T17:34:08;13.60;;;6.30;;
37349;SDS011;23231;52.358;4.926;2022-10-17T17:39:10;13.23;;;5.45;;
37349;SDS011;23231;52.358;4.926;2022-10-17T17:44:12;11.38;;;5.55;;
37349;SDS011;23231;52.358;4.926;2022-10-17T17:49:13;8.65;;;5.18;;
37349;SDS011;23231;52.358;4.926;2022-10-17T17:54:13;20.50;;;10.23;;
37349;SDS011;23231;52.358;4.926;2022-10-17T17:59:14;11.88;;;5.88;;
37349;SDS011;23231;52.358;4.926;2022-10-17T18:04:14;13.95;;;6.47;;
37349;SDS011;23231;52.358;4.926;2022-10-17T18:09:15;14.88;;;6.43;;
37349;SDS011;23231;52.358;4.926;2022-10-17T18:14:15;12.85;;;5.78;;
37349;SDS011;23231;52.358;4.926;2022-10-17T18:19:18;12.48;;;5.22;;
37349;SDS011;23231;52.358;4.926;2022-10-17T18:24:18;13.68;;;5.55;;
37349;SDS011;23231;52.358;4.926;2022-10-17T18:29:18;11.85;;;5.18;;
37349;SDS011;23231;52.358;4.926;2022-10-17T18:34:19;9.48;;;5.45;;
37349;SDS011;23231;52.358;4.926;2022-10-17T18:39:19;9.68;;;4.13;;
37349;SDS011;23231;52.358;4.926;2022-10-17T18:44:20;9.35;;;4.85;;
37349;SDS011;23231;52.358;4.926;2022-10-17T18:49:21;11.60;;;4.72;;
37349;SDS011;23231;52.358;4.926;2022-10-17T18:54:22;10.70;;;4.25;;
37349;SDS011;23231;52.358;4.926;2022-10-17T18:59:23;9.20;;;4.35;;
37349;SDS011;23231;52.358;4.926;2022-10-17T19:04:23;13.65;;;4.72;;
37349;SDS011;23231;52.358;4.926;2022-10-17T19:09:24;14.45;;;4.70;;
37349;SDS011;23231;52.358;4.926;2022-10-17T19:14:25;14.10;;;4.00;;
37349;SDS011;23231;52.358;4.926;2022-10-17T19:19:27;9.75;;;3.80;;
37349;SDS011;23231;52.358;4.926;2022-10-17T19:24:28;9.98;;;3.70;;
37349;SDS011;23231;52.358;4.926;2022-10-17T19:29:28;12.23;;;3.97;;
37349;SDS011;23231;52.358;4.926;2022-10-17T19:34:32;10.27;;;4.03;;
37349;SDS011;23231;52.358;4.926;2022-10-17T19:39:34;13.75;;;3.78;;
37349;SDS011;23231;52.358;4.926;2022-10-17T19:44:34;10.90;;;4.13;;
37349;SDS011;23231;52.358;4.926;2022-10-17T19:49:34;12.38;;;4.35;;
37349;SDS011;23231;52.358;4.926;2022-10-17T19:54:35;12.30;;;4.10;;
37349;SDS011;23231;52.358;4.926;2022-10-17T19:59:37;9.52;;;4.45;;
37349;SDS011;23231;52.358;4.926;2022-10-17T20:04:38;10.13;;;4.15;;
37349;SDS011;23231;52.358;4.926;2022-10-17T20:09:38;9.05;;;3.97;;
37349;SDS011;23231;52.358;4.926;2022-10-17T20:14:39;10.10;;;4.40;;
37349;SDS011;23231;52.358;4.926;2022-10-17T20:19:39;11.60;;;4.30;;
37349;SDS011;23231;52.358;4.926;2022-10-17T20:24:40;14.23;;;4.82;;
37349;SDS011;23231;52.358;4.926;2022-10-17T20:29:40;12.02;;;5.43;;
37349;SDS011;23231;52.358;4.926;2022-10-17T20:34:40;12.23;;;4.63;;
37349;SDS011;23231;52.358;4.926;2022-10-17T20:39:41;12.23;;;4.45;;
37349;SDS011;23231;52.358;4.926;2022-10-17T20:44:41;14.35;;;6.13;;
37349;SDS011;23231;52.358;4.926;2022-10-17T20:49:42;9.38;;;4.70;;
37349;SDS011;23231;52.358;4.926;2022-10-17T20:54:42;14.02;;;5.55;;
37349;SDS011;23231;52.358;4.926;2022-10-17T20:59:43;11.52;;;5.07;;
37349;SDS011;23231;52.358;4.926;2022-10-17T21:04:44;14.68;;;5.70;;
37349;SDS011;23231;52.358;4.926;2022-10-17T21:09:47;11.63;;;5.60;;
37349;SDS011;23231;52.358;4.926;2022-10-17T21:14:47;12.73;;;5.47;;
37349;SDS011;23231;52.358;4.926;2022-10-17T21:19:49;12.50;;;5.38;;
37349;SDS011;23231;52.358;4.926;2022-10-17T21:24:49;15.50;;;6.00;;
37349;SDS011;23231;52.358;4.926;2022-10-17T21:29:49;14.55;;;6.82;;
37349;SDS011;23231;52.358;4.926;2022-10-17T21:34:50;15.98;;;7.90;;
37349;SDS011;23231;52.358;4.926;2022-10-17T21:39:51;20.23;;;7.50;;
37349;SDS011;23231;52.358;4.926;2022-10-17T21:44:51;16.75;;;7.88;;
37349;SDS011;23231;52.358;4.926;2022-10-17T21:49:52;18.98;;;8.25;;
37349;SDS011;23231;52.358;4.926;2022-10-17T21:54:52;17.33;;;7.38;;
37349;SDS011;23231;52.358;4.926;2022-10-17T21:59:53;15.57;;;7.28;;
37349;SDS011;23231;52.358;4.926;2022-10-17T22:04:53;13.80;;;7.18;;
37349;SDS011;23231;52.358;4.926;2022-10-17T22:09:53;16.23;;;7.75;;
37349;SDS011;23231;52.358;4.926;2022-10-17T22:14:54;15.23;;;8.73;;
37349;SDS011;23231;52.358;4.926;2022-10-17T22:19:54;16.33;;;9.07;;
37349;SDS011;23231;52.358;4.926;2022-10-17T22:24:55;18.15;;;10.90;;
37349;SDS011;23231;52.358;4.926;2022-10-17T22:29:55;20.15;;;11.93;;
37349;SDS011;23231;52.358;4.926;2022-10-17T22:34:55;25.20;;;12.32;;
37349;SDS011;23231;52.358;4.926;2022-10-17T22:39:56;19.33;;;10.85;;
37349;SDS011;23231;52.358;4.926;2022-10-17T22:44:56;19.20;;;10.93;;
37349;SDS011;23231;52.358;4.926;2022-10-17T22:49:57;19.73;;;11.02;;
37349;SDS011;23231;52.358;4.926;2022-10-17T22:54:57;25.15;;;11.73;;
37349;SDS011;23231;52.358;4.926;2022-10-17T22:59:58;18.52;;;10.50;;
37349;SDS011;23231;52.358;4.926;2022-10-17T23:04:58;17.77;;;11.18;;
37349;SDS011;23231;52.358;4.926;2022-10-17T23:09:59;18.63;;;10.95;;
37349;SDS011;23231;52.358;4.926;2022-10-17T23:14:59;22.05;;;12.32;;
37349;SDS011;23231;52.358;4.926;2022-10-17T23:20:00;17.42;;;10.60;;
37349;SDS011;23231;52.358;4.926;2022-10-17T23:25:00;21.70;;;10.73;;
37349;SDS011;23231;52.358;4.926;2022-10-17T23:30:01;16.48;;;9.68;;
37349;SDS011;23231;52.358;4.926;2022-10-17T23:35:02;17.60;;;9.50;;
37349;SDS011;23231;52.358;4.926;2022-10-17T23:40:03;17.20;;;9.05;;
37349;SDS011;23231;52.358;4.926;2022-10-17T23:45:04;17.33;;;9.00;;
37349;SDS011;23231;52.358;4.926;2022-10-17T23:50:05;18.77;;;9.85;;
37349;SDS011;23231;52.358;4.926;2022-10-17T23:55:06;21.58;;;9.82;;
